Time;durP1;ratioP1;P1;durP2;ratioP2;P2;SDS_P1;SDS_P2;PMS_P1;PMS_P2;Temp;Humidity;BMP_temperature;BMP_pressure;BME280_temperature;BME280_humidity;BME280_pressure;Samples;Min_cycle;Max_cycle;Signal;HPM_P1;HPM_P2
2021/11/23 00:01:55;;;;;;;6.90;5.20;;;6.70;99.90;;;;;;6264088;23;20230;-83
2021/11/23 00:04:43;;;;;;;7.60;5.50;;;6.70;99.90;;;;;;6259694;22;20168;-84
2021/11/23 00:07:15;;;;;;;9.60;7.87;;;6.60;99.90;;;;;;6259317;22;20491;-85
2021/11/23 00:09:46;;;;;;;6.73;5.20;;;6.70;99.90;;;;;;6260679;22;20219;-85
2021/11/23 00:12:21;;;;;;;11.97;10.77;;;6.70;99.90;;;;;;6264972;23;20627;-84
2021/11/23 00:14:53;;;;;;;18.30;11.43;;;6.70;99.90;;;;;;6264994;22;20164;-83
2021/11/23 00:17:27;;;;;;;10.00;5.07;;;6.70;99.90;;;;;;6262996;22;20255;-83
2021/11/23 00:19:59;;;;;;;9.77;5.77;;;6.70;99.90;;;;;;6264448;22;20185;-82
2021/11/23 00:22:32;;;;;;;8.40;5.70;;;6.70;99.90;;;;;;6254476;22;20164;-83
2021/11/23 00:25:05;;;;;;;7.83;5.53;;;6.70;99.90;;;;;;6255155;22;20167;-85
2021/11/23 00:27:39;;;;;;;8.83;7.93;;;6.80;99.90;;;;;;6265923;22;20164;-87
2021/11/23 00:30:11;;;;;;;12.37;7.63;;;6.80;99.90;;;;;;6264010;23;20175;-85
2021/11/23 00:32:43;;;;;;;8.27;5.00;;;6.80;99.90;;;;;;6262761;22;20164;-85
2021/11/23 00:35:15;;;;;;;8.53;5.43;;;6.80;99.90;;;;;;6261841;23;20178;-85
2021/11/23 00:37:48;;;;;;;9.67;6.47;;;6.90;99.90;;;;;;6250105;23;20175;-85
2021/11/23 00:40:22;;;;;;;7.90;6.63;;;6.80;99.90;;;;;;6260836;23;20614;-85
2021/11/23 00:42:57;;;;;;;8.00;5.10;;;6.90;99.90;;;;;;6257862;23;20183;-84
2021/11/23 00:45:28;;;;;;;7.87;5.33;;;6.90;99.90;;;;;;6263437;22;20832;-84
2021/11/23 00:48:03;;;;;;;7.63;4.87;;;6.90;99.90;;;;;;6265136;22;20606;-84
2021/11/23 00:50:36;;;;;;;7.23;5.17;;;6.90;99.90;;;;;;6265139;23;20231;-83
2021/11/23 00:53:09;;;;;;;6.83;5.10;;;6.90;99.90;;;;;;6264317;23;20164;-84
2021/11/23 00:55:41;;;;;;;6.73;4.93;;;6.90;99.90;;;;;;6260413;23;20180;-85
2021/11/23 00:58:15;;;;;;;7.73;5.33;;;6.90;99.90;;;;;;6255905;23;20227;-85
2021/11/23 01:00:47;;;;;;;6.63;5.37;;;6.90;99.90;;;;;;6258756;22;20195;-83
2021/11/23 01:03:19;;;;;;;8.43;5.90;;;6.90;99.90;;;;;;6260896;23;20171;-82
2021/11/23 01:05:52;;;;;;;11.67;6.23;;;6.90;99.90;;;;;;6258386;23;20168;-84
2021/11/23 01:08:24;;;;;;;8.87;6.13;;;6.90;99.90;;;;;;6257879;22;20168;-83
2021/11/23 01:10:57;;;;;;;12.13;10.87;;;6.90;99.90;;;;;;6247122;23;20179;-85
2021/11/23 01:13:30;;;;;;;8.80;5.77;;;6.90;99.90;;;;;;6248960;22;20164;-84
2021/11/23 01:16:02;;;;;;;7.23;5.33;;;7.00;99.90;;;;;;6247675;22;20175;-84
2021/11/23 01:18:34;;;;;;;9.57;6.00;;;7.00;99.90;;;;;;6251256;22;20176;-87
2021/11/23 01:21:09;;;;;;;7.70;5.77;;;7.00;99.90;;;;;;6264171;22;20219;-88
2021/11/23 01:23:40;;;;;;;8.67;6.50;;;7.00;99.90;;;;;;6272658;22;20228;-88
2021/11/23 01:26:12;;;;;;;7.00;6.20;;;7.00;99.90;;;;;;6271312;22;20167;-86
2021/11/23 01:28:47;;;;;;;9.00;5.27;;;7.00;99.90;;;;;;6256547;23;20184;-89
2021/11/23 01:31:18;;;;;;;7.20;5.43;;;7.00;99.90;;;;;;6257710;22;20246;-88
2021/11/23 01:33:50;;;;;;;8.57;5.33;;;7.00;99.90;;;;;;6250065;23;20176;-88
2021/11/23 01:36:21;;;;;;;6.87;5.07;;;7.00;99.90;;;;;;6247527;23;20485;-88
2021/11/23 01:38:53;;;;;;;7.63;5.20;;;7.00;99.90;;;;;;6249739;23;20187;-87
2021/11/23 01:41:24;;;;;;;7.43;5.43;;;7.00;99.90;;;;;;6250186;23;20275;-88
2021/11/23 01:44:00;;;;;;;7.67;5.60;;;7.00;99.90;;;;;;6255217;22;20220;-87
2021/11/23 01:46:36;;;;;;;8.00;5.33;;;7.10;99.90;;;;;;6251280;22;20491;-87
2021/11/23 01:49:08;;;;;;;6.87;4.70;;;7.10;99.90;;;;;;6252012;22;20649;-87
2021/11/23 01:51:43;;;;;;;6.03;4.33;;;7.10;99.90;;;;;;6251062;22;20217;-86
2021/11/23 01:54:16;;;;;;;7.73;3.93;;;7.10;99.90;;;;;;6253510;22;20246;-87
2021/11/23 01:56:48;;;;;;;5.50;3.60;;;7.10;99.90;;;;;;6251571;23;20183;-88
2021/11/23 01:59:23;;;;;;;5.47;3.80;;;7.20;99.90;;;;;;6252953;23;20507;-87
2021/11/23 02:01:55;;;;;;;5.33;3.40;;;7.20;99.90;;;;;;6252940;22;20199;-86
2021/11/23 02:04:27;;;;;;;5.53;3.60;;;7.20;99.90;;;;;;6253598;22;20501;-87
2021/11/23 02:06:58;;;;;;;4.83;3.67;;;7.30;99.90;;;;;;6259903;23;20204;-86
2021/11/23 02:09:30;;;;;;;4.87;3.47;;;7.30;99.90;;;;;;6258419;22;20622;-85
2021/11/23 02:12:02;;;;;;;6.70;3.60;;;7.30;99.90;;;;;;6259638;22;20191;-87
2021/11/23 02:14:38;;;;;;;5.10;3.13;;;7.30;99.90;;;;;;6258739;22;20529;-87
2021/11/23 02:17:09;;;;;;;5.83;3.23;;;7.30;99.90;;;;;;6257220;23;20171;-87
2021/11/23 02:19:52;;;;;;;5.03;3.03;;;7.30;99.90;;;;;;6259469;23;20172;-87
2021/11/23 02:22:24;;;;;;;4.70;3.37;;;7.40;99.90;;;;;;6254557;23;20200;-88
2021/11/23 02:24:57;;;;;;;4.33;3.17;;;7.40;99.90;;;;;;6269128;22;20202;-85
2021/11/23 02:27:29;;;;;;;4.07;2.97;;;7.40;99.90;;;;;;6266511;23;20199;-86
2021/11/23 02:30:02;;;;;;;4.27;3.27;;;7.40;99.90;;;;;;6272557;23;20195;-87
2021/11/23 02:32:42;;;;;;;4.37;3.17;;;7.40;99.90;;;;;;6268163;22;20179;-86
2021/11/23 02:35:21;;;;;;;5.90;3.00;;;7.40;99.90;;;;;;6263883;22;20237;-89
2021/11/23 02:37:57;;;;;;;3.77;2.97;;;7.40;99.90;;;;;;6271621;22;20225;-87
2021/11/23 02:40:29;;;;;;;5.73;3.73;;;7.40;99.90;;;;;;6265643;23;20174;-86
2021/11/23 02:45:37;;;;;;;4.23;3.27;;;7.40;99.90;;;;;;6270936;22;20201;-86
2021/11/23 02:48:14;;;;;;;4.87;3.50;;;7.40;99.90;;;;;;6264929;22;20170;-87
2021/11/23 02:50:59;;;;;;;5.40;3.53;;;7.40;99.90;;;;;;6271588;22;20169;-88
2021/11/23 02:53:31;;;;;;;6.43;3.77;;;7.50;99.90;;;;;;6265733;23;20175;-86
2021/11/23 02:56:07;;;;;;;4.33;3.07;;;7.50;99.90;;;;;;6263780;22;20186;-87
2021/11/23 02:58:46;;;;;;;7.00;3.30;;;7.50;99.90;;;;;;6264311;23;20180;-88
2021/11/23 03:01:20;;;;;;;5.20;3.23;;;7.50;99.90;;;;;;6263413;23;20231;-87
2021/11/23 03:03:54;;;;;;;4.60;2.70;;;7.50;99.90;;;;;;6266916;23;20177;-86
2021/11/23 03:06:28;;;;;;;3.93;3.10;;;7.50;99.90;;;;;;6268292;22;20237;-85
2021/11/23 03:09:11;;;;;;;5.40;2.80;;;7.50;99.90;;;;;;6265048;23;20175;-86
2021/11/23 03:11:43;;;;;;;5.07;3.83;;;7.50;99.90;;;;;;6261669;23;20202;-87
2021/11/23 03:14:16;;;;;;;5.67;3.20;;;7.50;99.90;;;;;;6264754;22;20164;-86
2021/11/23 03:16:50;;;;;;;4.10;2.80;;;7.50;99.90;;;;;;6264806;22;20628;-86
2021/11/23 03:19:24;;;;;;;4.20;2.70;;;7.50;99.90;;;;;;6266218;22;20190;-86
2021/11/23 03:21:59;;;;;;;3.43;2.63;;;7.50;99.90;;;;;;6264635;23;20705;-85
2021/11/23 03:24:32;;;;;;;5.33;3.00;;;7.50;99.90;;;;;;6269104;22;20178;-84
2021/11/23 03:27:04;;;;;;;5.40;2.83;;;7.50;99.90;;;;;;6266358;23;20263;-86
2021/11/23 03:29:37;;;;;;;4.30;3.03;;;7.50;99.90;;;;;;6269981;23;20168;-85
2021/11/23 03:32:10;;;;;;;5.63;2.73;;;7.50;99.90;;;;;;6267266;22;20172;-84
2021/11/23 03:34:43;;;;;;;4.67;2.77;;;7.50;99.90;;;;;;6264486;22;20168;-82
2021/11/23 03:37:22;;;;;;;6.87;3.30;;;7.60;99.90;;;;;;6263365;22;20205;-81
2021/11/23 03:39:56;;;;;;;4.43;2.27;;;7.60;99.90;;;;;;6265735;23;20227;-82
2021/11/23 03:42:29;;;;;;;3.23;2.60;;;7.50;99.90;;;;;;6264567;22;20210;-82
2021/11/23 03:45:05;;;;;;;4.63;2.83;;;7.60;99.90;;;;;;6263266;23;20191;-83
2021/11/23 03:47:46;;;;;;;5.63;3.03;;;7.60;99.90;;;;;;6265284;23;20172;-81
2021/11/23 03:50:18;;;;;;;3.30;2.73;;;7.70;99.90;;;;;;6265215;22;20156;-86
2021/11/23 03:53:08;;;;;;;5.53;2.77;;;7.60;99.90;;;;;;6265887;23;20188;-80
2021/11/23 03:55:48;;;;;;;5.47;2.90;;;7.70;99.90;;;;;;6262859;22;20229;-82
2021/11/23 03:58:20;;;;;;;3.50;2.83;;;7.70;99.90;;;;;;6264823;22;20174;-81
2021/11/23 04:00:51;;;;;;;5.17;2.40;;;7.70;99.90;;;;;;6264048;23;20175;-81
2021/11/23 04:03:25;;;;;;;4.00;2.83;;;7.70;99.90;;;;;;6266859;23;20271;-83
2021/11/23 04:05:57;;;;;;;4.53;2.40;;;7.80;99.90;;;;;;6266943;22;20189;-82
2021/11/23 04:08:34;;;;;;;4.60;2.33;;;7.80;99.90;;;;;;6265775;22;20235;-83
2021/11/23 04:11:06;;;;;;;4.73;2.57;;;7.80;99.90;;;;;;6263927;23;20193;-83
2021/11/23 04:13:40;;;;;;;4.20;3.07;;;7.80;99.90;;;;;;6264234;23;20182;-82
2021/11/23 04:16:13;;;;;;;4.57;2.90;;;7.80;99.90;;;;;;6263014;22;20182;-85
2021/11/23 04:18:44;;;;;;;5.50;2.47;;;7.80;99.90;;;;;;6267391;22;20235;-86
2021/11/23 04:21:16;;;;;;;4.77;2.77;;;7.80;99.90;;;;;;6263479;22;20203;-86
2021/11/23 04:26:46;;;;;;;4.30;2.30;;;7.60;99.90;;;;;;6263001;23;20176;-85
2021/11/23 04:29:19;;;;;;;2.93;2.30;;;7.60;99.90;;;;;;6259087;23;20221;-86
2021/11/23 04:31:52;;;;;;;4.10;2.53;;;7.60;99.90;;;;;;6262278;22;20236;-85
2021/11/23 04:34:23;;;;;;;4.57;2.57;;;7.60;99.90;;;;;;6262714;22;20198;-85
2021/11/23 04:37:10;;;;;;;3.93;2.70;;;7.50;99.90;;;;;;6267613;22;20171;-85
2021/11/23 04:39:46;;;;;;;2.97;2.50;;;7.50;99.90;;;;;;6267989;22;20186;-84
2021/11/23 04:42:20;;;;;;;3.20;2.57;;;7.50;99.90;;;;;;6265738;23;20174;-83
2021/11/23 04:44:53;;;;;;;7.23;2.90;;;7.50;99.90;;;;;;6253607;23;20498;-84
2021/11/23 04:47:27;;;;;;;2.97;2.67;;;7.50;99.90;;;;;;6252900;23;20184;-85
2021/11/23 04:49:59;;;;;;;4.43;2.60;;;7.50;99.90;;;;;;6260661;23;20189;-84
2021/11/23 04:52:31;;;;;;;5.63;2.77;;;7.50;99.90;;;;;;6265052;23;20230;-83
2021/11/23 04:55:06;;;;;;;5.83;2.47;;;7.50;99.90;;;;;;6263850;22;20216;-85
2021/11/23 04:57:39;;;;;;;3.37;2.27;;;7.60;99.90;;;;;;6255229;22;20195;-85
2021/11/23 05:00:16;;;;;;;3.63;2.60;;;7.60;99.90;;;;;;6252107;23;20453;-85
2021/11/23 05:02:50;;;;;;;2.80;2.23;;;7.50;99.90;;;;;;6258594;22;20241;-86
2021/11/23 05:05:25;;;;;;;3.63;2.30;;;7.50;99.90;;;;;;6261108;22;20223;-85
2021/11/23 05:08:01;;;;;;;2.90;2.27;;;7.50;99.90;;;;;;6260926;23;20179;-85
2021/11/23 05:10:39;;;;;;;3.73;2.70;;;7.50;99.90;;;;;;6262886;23;20193;-85
2021/11/23 05:13:11;;;;;;;3.57;2.77;;;7.50;99.90;;;;;;6266383;22;20174;-85
2021/11/23 05:15:43;;;;;;;3.43;2.70;;;7.50;99.90;;;;;;6266562;22;20189;-86
2021/11/23 05:18:14;;;;;;;4.03;2.73;;;7.50;99.90;;;;;;6252649;22;20176;-85
2021/11/23 05:20:46;;;;;;;3.63;2.37;;;7.50;99.90;;;;;;6252433;23;20251;-85
2021/11/23 05:23:18;;;;;;;4.13;2.60;;;7.40;99.90;;;;;;6252998;22;20196;-85
2021/11/23 05:25:55;;;;;;;3.10;2.50;;;7.40;99.90;;;;;;6251641;23;20172;-86
2021/11/23 05:28:28;;;;;;;4.00;2.43;;;7.40;99.90;;;;;;6253397;23;20176;-84
2021/11/23 05:30:59;;;;;;;5.53;2.70;;;7.40;99.90;;;;;;6252637;22;20280;-84
2021/11/23 05:33:31;;;;;;;3.13;2.60;;;7.40;99.90;;;;;;6254085;22;20235;-85
2021/11/23 05:36:02;;;;;;;5.37;2.73;;;7.30;99.90;;;;;;6263177;22;20231;-84
2021/11/23 05:38:37;;;;;;;5.43;2.53;;;7.40;99.90;;;;;;6276567;22;20241;-85
2021/11/23 05:41:13;;;;;;;3.87;2.53;;;7.30;99.90;;;;;;6261430;22;20178;-84
2021/11/23 05:43:48;;;;;;;7.20;2.37;;;7.40;99.90;;;;;;6262009;22;20195;-84
2021/11/23 05:46:20;;;;;;;3.10;2.13;;;7.40;99.90;;;;;;6251504;22;20201;-85
2021/11/23 05:48:53;;;;;;;3.20;2.53;;;7.50;99.90;;;;;;6271750;22;20202;-83
2021/11/23 05:51:24;;;;;;;2.90;1.80;;;7.50;99.90;;;;;;6250220;22;20194;-84
2021/11/23 05:53:58;;;;;;;4.20;2.43;;;7.50;99.90;;;;;;6254975;23;20536;-85
2021/11/23 05:59:09;;;;;;;3.20;2.10;;;7.50;99.90;;;;;;6242896;23;20175;-84
2021/11/23 06:01:40;;;;;;;3.50;2.53;;;7.50;99.90;;;;;;6241022;23;20186;-84
2021/11/23 06:04:13;;;;;;;2.47;1.93;;;7.50;99.90;;;;;;6268911;22;20223;-85
2021/11/23 06:06:48;;;;;;;2.80;1.90;;;7.50;99.90;;;;;;6260439;22;20176;-85
2021/11/23 06:09:20;;;;;;;2.40;2.20;;;7.50;99.90;;;;;;6252489;22;20182;-84
2021/11/23 06:11:53;;;;;;;2.37;1.90;;;7.60;99.90;;;;;;6253338;23;20277;-84
2021/11/23 06:14:31;;;;;;;2.67;2.03;;;7.60;99.90;;;;;;6262372;22;20223;-84
2021/11/23 06:17:06;;;;;;;3.77;2.00;;;7.70;99.90;;;;;;6270437;22;20195;-84
2021/11/23 06:19:38;;;;;;;2.03;1.70;;;7.80;99.90;;;;;;6271031;22;20159;-84
2021/11/23 06:22:11;;;;;;;3.30;1.80;;;7.80;99.90;;;;;;6271250;22;20169;-84
2021/11/23 06:24:43;;;;;;;3.87;1.60;;;7.90;99.90;;;;;;6270977;22;20204;-85
2021/11/23 06:27:16;;;;;;;2.90;1.60;;;8.00;99.90;;;;;;6267641;22;20219;-84
2021/11/23 06:29:55;;;;;;;2.23;1.50;;;8.00;99.90;;;;;;6271186;22;20190;-85
2021/11/23 06:32:26;;;;;;;4.13;1.83;;;8.10;99.90;;;;;;6268735;23;20201;-84
2021/11/23 06:34:58;;;;;;;3.13;1.70;;;8.10;99.90;;;;;;6256210;23;20167;-84
2021/11/23 06:37:31;;;;;;;2.70;1.40;;;8.10;99.90;;;;;;6263303;22;20594;-83
2021/11/23 06:40:03;;;;;;;2.33;1.60;;;8.10;99.90;;;;;;6255856;23;20194;-85
2021/11/23 06:42:35;;;;;;;3.33;1.60;;;8.10;99.90;;;;;;6253681;22;20220;-85
2021/11/23 06:45:13;;;;;;;3.57;2.83;;;8.10;99.90;;;;;;6251868;23;20262;-84
2021/11/23 06:47:45;;;;;;;1.80;1.37;;;8.10;99.90;;;;;;6254154;22;20176;-83
2021/11/23 06:50:17;;;;;;;2.27;1.60;;;8.20;99.90;;;;;;6253598;23;20174;-86
2021/11/23 06:52:48;;;;;;;2.47;1.50;;;8.10;99.90;;;;;;6252167;22;20202;-85
2021/11/23 06:55:20;;;;;;;2.07;1.37;;;8.20;99.90;;;;;;6251466;23;20583;-84
2021/11/23 06:57:52;;;;;;;2.23;1.47;;;8.20;99.90;;;;;;6251968;23;20198;-86
2021/11/23 07:00:26;;;;;;;3.30;2.53;;;8.10;99.90;;;;;;6254283;22;20248;-84
2021/11/23 07:02:58;;;;;;;2.30;1.73;;;8.20;99.90;;;;;;6257671;23;20207;-86
2021/11/23 07:05:30;;;;;;;3.63;2.43;;;8.20;99.90;;;;;;6251105;22;20223;-85
2021/11/23 07:08:21;;;;;;;2.97;2.63;;;8.10;99.90;;;;;;6251120;22;20193;-84
2021/11/23 07:10:53;;;;;;;2.67;2.03;;;8.10;99.90;;;;;;6249637;23;20237;-84
2021/11/23 07:13:25;;;;;;;5.43;2.10;;;8.10;99.90;;;;;;6251569;22;20494;-84
2021/11/23 07:15:58;;;;;;;3.40;2.33;;;8.10;99.90;;;;;;6250905;22;20180;-86
2021/11/23 07:18:29;;;;;;;4.03;2.10;;;8.00;99.90;;;;;;6251481;23;20178;-84
2021/11/23 07:21:01;;;;;;;3.87;2.67;;;8.10;99.90;;;;;;6251625;22;20203;-83
2021/11/23 07:23:52;;;;;;;5.70;2.63;;;8.00;99.90;;;;;;6251766;23;20193;-85
2021/11/23 07:26:24;;;;;;;4.17;2.80;;;8.00;99.90;;;;;;6249630;23;20164;-84
2021/11/23 07:28:55;;;;;;;5.27;3.13;;;8.00;99.90;;;;;;6252411;22;20175;-84
2021/11/23 07:31:30;;;;;;;5.13;3.10;;;8.00;99.90;;;;;;6251139;23;20170;-83
2021/11/23 07:34:02;;;;;;;4.67;3.00;;;8.10;99.90;;;;;;6253955;22;20672;-84
2021/11/23 07:36:34;;;;;;;4.27;3.43;;;8.00;99.90;;;;;;6250974;23;20631;-84
2021/11/23 07:39:06;;;;;;;5.67;3.87;;;8.10;99.90;;;;;;6251304;23;20180;-84
2021/11/23 07:41:38;;;;;;;6.87;3.33;;;8.10;99.90;;;;;;6251110;22;20172;-83
2021/11/23 07:44:10;;;;;;;5.13;3.10;;;8.10;99.90;;;;;;6251450;23;20206;-82
2021/11/23 07:46:43;;;;;;;3.90;2.90;;;8.10;99.90;;;;;;6249264;23;20210;-83
2021/11/23 07:49:15;;;;;;;5.93;3.30;;;8.00;99.90;;;;;;6251029;22;20504;-83
2021/11/23 07:51:47;;;;;;;5.30;2.97;;;7.90;99.90;;;;;;6250590;23;20191;-83
2021/11/23 07:54:18;;;;;;;4.83;3.50;;;7.90;99.90;;;;;;6250642;22;20168;-83
2021/11/23 07:56:50;;;;;;;6.23;3.50;;;7.90;99.90;;;;;;6248994;23;20182;-83
2021/11/23 07:59:22;;;;;;;6.13;3.73;;;7.90;99.90;;;;;;6250783;22;20168;-84
2021/11/23 08:01:56;;;;;;;6.27;3.53;;;7.90;99.90;;;;;;6249901;22;20180;-83
2021/11/23 08:04:28;;;;;;;6.53;4.37;;;7.90;99.90;;;;;;6251377;22;20203;-84
2021/11/23 08:06:59;;;;;;;7.23;5.73;;;7.80;99.90;;;;;;6248880;23;20187;-84
2021/11/23 08:09:32;;;;;;;5.47;3.90;;;7.80;99.90;;;;;;6258873;22;20178;-85
2021/11/23 08:12:05;;;;;;;5.47;4.07;;;7.80;99.90;;;;;;6267212;23;20219;-85
2021/11/23 08:14:37;;;;;;;9.57;4.20;;;7.70;99.90;;;;;;6271829;22;20169;-84
2021/11/23 08:17:10;;;;;;;7.87;4.40;;;7.70;99.90;;;;;;6271090;22;20490;-84
2021/11/23 08:19:42;;;;;;;5.60;4.00;;;7.70;99.90;;;;;;6256204;22;20180;-84
2021/11/23 08:22:13;;;;;;;6.33;4.70;;;7.70;99.90;;;;;;6250851;22;20245;-84
2021/11/23 08:24:45;;;;;;;4.97;4.07;;;7.60;99.90;;;;;;6250241;22;20219;-84
2021/11/23 08:27:17;;;;;;;6.30;4.37;;;7.70;99.90;;;;;;6250723;23;20227;-83
2021/11/23 08:29:48;;;;;;;5.07;4.03;;;7.70;99.90;;;;;;6251663;23;20180;-86
2021/11/23 08:32:22;;;;;;;5.17;3.80;;;7.60;99.90;;;;;;6250140;22;20171;-85
2021/11/23 08:34:53;;;;;;;7.60;4.80;;;7.70;99.90;;;;;;6250041;22;20172;-84
2021/11/23 08:37:27;;;;;;;8.77;4.70;;;7.60;99.90;;;;;;6254705;23;20255;-84
2021/11/23 08:39:59;;;;;;;5.50;4.00;;;7.60;99.90;;;;;;6259370;23;20226;-84
2021/11/23 08:42:30;;;;;;;8.67;4.57;;;7.60;99.90;;;;;;6258562;22;20241;-84
2021/11/23 08:45:02;;;;;;;7.37;3.77;;;7.60;99.90;;;;;;6253422;23;20207;-85
2021/11/23 08:47:37;;;;;;;4.73;3.67;;;7.60;99.90;;;;;;6249223;23;20255;-83
2021/11/23 08:50:10;;;;;;;5.30;3.50;;;7.60;99.90;;;;;;6250694;23;20173;-84
2021/11/23 08:52:41;;;;;;;5.43;3.70;;;7.50;99.90;;;;;;6250906;22;20551;-84
2021/11/23 08:55:13;;;;;;;6.07;4.07;;;7.50;99.90;;;;;;6250721;22;20177;-84
2021/11/23 08:57:46;;;;;;;5.33;3.63;;;7.50;99.90;;;;;;6253475;22;20176;-84
2021/11/23 09:00:20;;;;;;;5.50;3.33;;;7.50;99.90;;;;;;6251710;22;20164;-85
2021/11/23 09:02:56;;;;;;;6.20;3.23;;;7.50;99.90;;;;;;6248220;23;20184;-84
2021/11/23 09:05:31;;;;;;;5.60;3.57;;;7.60;99.90;;;;;;6247343;23;20214;-85
2021/11/23 09:08:04;;;;;;;7.30;3.53;;;7.60;99.90;;;;;;6252713;22;20183;-85
2021/11/23 09:10:39;;;;;;;3.97;3.03;;;7.60;99.90;;;;;;6252366;22;20226;-85
2021/11/23 09:13:14;;;;;;;4.37;3.20;;;7.60;99.90;;;;;;6248610;23;20175;-84
2021/11/23 09:16:27;;;;;;;5.10;3.43;;;7.60;99.90;;;;;;6255970;23;20175;-84
2021/11/23 09:19:04;;;;;;;5.07;3.13;;;7.60;99.90;;;;;;6248749;22;20164;-84
2021/11/23 09:21:36;;;;;;;6.40;2.60;;;7.60;99.90;;;;;;6248848;22;20163;-83
2021/11/23 09:24:08;;;;;;;3.93;2.67;;;7.70;99.90;;;;;;6247919;22;20229;-83
2021/11/23 09:26:40;;;;;;;3.87;3.00;;;7.70;99.90;;;;;;6247757;22;20251;-84
2021/11/23 09:29:13;;;;;;;3.40;2.50;;;7.70;99.90;;;;;;6249037;22;20163;-83
2021/11/23 09:31:44;;;;;;;3.43;2.40;;;7.70;99.90;;;;;;6247387;23;20183;-83
2021/11/23 09:34:20;;;;;;;3.40;2.67;;;7.70;99.90;;;;;;6248663;23;20616;-84
2021/11/23 09:36:57;;;;;;;5.00;2.47;;;7.70;99.90;;;;;;6245416;23;20235;-84
2021/11/23 09:39:29;;;;;;;4.20;2.53;;;7.70;99.90;;;;;;6248930;22;20171;-84
2021/11/23 09:42:07;;;;;;;5.43;2.77;;;7.70;99.90;;;;;;6248466;23;20255;-84
2021/11/23 09:44:43;;;;;;;5.20;2.90;;;7.70;99.90;;;;;;6246068;23;20691;-83
2021/11/23 09:47:15;;;;;;;4.73;2.77;;;7.70;99.90;;;;;;6247230;22;20206;-84
2021/11/23 09:49:49;;;;;;;6.70;3.10;;;7.70;99.90;;;;;;6246409;23;20172;-83
2021/11/23 09:52:20;;;;;;;5.23;3.30;;;7.70;99.90;;;;;;6248650;22;20246;-83
2021/11/23 09:54:52;;;;;;;5.57;3.10;;;7.70;99.90;;;;;;6248453;22;20168;-84
2021/11/23 09:57:24;;;;;;;3.27;2.67;;;7.70;99.90;;;;;;6247570;22;20168;-85
2021/11/23 09:59:55;;;;;;;4.03;2.60;;;7.70;99.90;;;;;;6247050;23;20164;-84
2021/11/23 10:02:29;;;;;;;3.47;2.40;;;7.70;99.90;;;;;;6248005;23;20250;-84
2021/11/23 10:05:06;;;;;;;5.13;2.60;;;7.70;99.90;;;;;;6247497;23;20201;-84
2021/11/23 10:07:40;;;;;;;4.50;2.23;;;7.70;99.90;;;;;;6247921;22;20193;-84
2021/11/23 10:10:19;;;;;;;4.77;2.30;;;7.70;99.90;;;;;;6248903;22;20219;-85
2021/11/23 10:12:56;;;;;;;4.17;2.77;;;7.80;99.90;;;;;;6249835;23;20169;-84
2021/11/23 10:15:30;;;;;;;4.13;2.57;;;7.70;99.90;;;;;;6249179;23;20203;-85
2021/11/23 10:18:12;;;;;;;4.83;2.83;;;7.70;99.90;;;;;;6250837;22;20211;-84
2021/11/23 10:20:49;;;;;;;3.43;2.60;;;7.70;99.90;;;;;;6251204;22;20662;-83
2021/11/23 10:23:26;;;;;;;3.20;2.43;;;7.70;99.90;;;;;;6251401;22;20476;-83
2021/11/23 10:26:02;;;;;;;3.40;2.30;;;7.70;99.90;;;;;;6265412;22;20191;-84
2021/11/23 10:28:35;;;;;;;4.47;2.57;;;7.70;99.90;;;;;;6271477;22;20235;-84
2021/11/23 10:31:08;;;;;;;3.87;1.97;;;7.70;99.90;;;;;;6270271;23;20259;-85
2021/11/23 10:33:42;;;;;;;6.90;2.70;;;7.60;99.90;;;;;;6251886;22;20176;-84
2021/11/23 10:36:19;;;;;;;4.07;2.37;;;7.60;99.90;;;;;;6249131;22;20177;-85
2021/11/23 10:38:50;;;;;;;3.50;2.30;;;7.50;99.90;;;;;;6250366;23;20187;-84
2021/11/23 10:41:22;;;;;;;5.53;2.50;;;7.50;99.90;;;;;;6250624;23;20171;-84
2021/11/23 10:43:54;;;;;;;3.57;2.53;;;7.50;99.90;;;;;;6250680;22;20164;-85
2021/11/23 10:46:27;;;;;;;5.40;2.53;;;7.50;99.90;;;;;;6249961;22;20200;-85
2021/11/23 10:49:02;;;;;;;3.07;2.20;;;7.50;99.90;;;;;;6253274;22;20238;-85
2021/11/23 10:51:43;;;;;;;3.30;2.30;;;7.50;99.90;;;;;;6250183;22;20238;-83
2021/11/23 10:54:16;;;;;;;5.57;2.50;;;7.50;99.90;;;;;;6249993;23;20174;-83
2021/11/23 10:57:00;;;;;;;4.37;2.87;;;7.50;99.90;;;;;;6248893;23;20182;-83
2021/11/23 10:59:36;;;;;;;3.33;2.43;;;7.40;99.90;;;;;;6249904;23;20240;-84
2021/11/23 11:02:09;;;;;;;5.30;2.40;;;7.40;99.90;;;;;;6249082;23;20198;-84
2021/11/23 11:04:44;;;;;;;3.50;2.50;;;7.40;99.90;;;;;;6249110;22;20218;-83
2021/11/23 11:07:20;;;;;;;4.37;2.40;;;7.40;99.90;;;;;;6248092;23;20191;-84
2021/11/23 11:09:51;;;;;;;5.77;2.60;;;7.40;99.90;;;;;;6249632;22;20163;-84
2021/11/23 11:12:24;;;;;;;5.13;2.50;;;7.40;99.90;;;;;;6250385;22;20172;-84
2021/11/23 11:14:59;;;;;;;3.17;2.27;;;7.40;99.90;;;;;;6249749;22;20570;-84
2021/11/23 11:17:30;;;;;;;3.57;2.13;;;7.40;99.90;;;;;;6248784;22;20262;-83
2021/11/23 11:20:02;;;;;;;4.47;2.10;;;7.30;99.90;;;;;;6249824;22;20246;-85
2021/11/23 11:22:53;;;;;;;4.77;2.23;;;7.30;99.90;;;;;;6249294;22;20191;-84
2021/11/23 11:25:27;;;;;;;4.93;1.77;;;7.20;99.90;;;;;;6248148;23;20172;-84
2021/11/23 11:27:59;;;;;;;3.03;1.70;;;7.30;99.90;;;;;;6249458;22;20321;-84
2021/11/23 11:30:33;;;;;;;1.70;1.50;;;7.20;99.90;;;;;;6251140;22;20170;-85
2021/11/23 11:33:21;;;;;;;4.13;1.53;;;7.20;99.90;;;;;;6251406;22;20166;-84
2021/11/23 11:35:55;;;;;;;7.03;1.97;;;7.20;99.90;;;;;;6249129;22;20603;-85
2021/11/23 11:38:44;;;;;;;2.80;1.63;;;7.10;99.90;;;;;;6249497;22;20166;-84
2021/11/23 11:41:38;;;;;;;2.80;1.70;;;7.10;99.90;;;;;;6249069;22;20171;-85
2021/11/23 11:44:13;;;;;;;5.67;1.20;;;7.10;99.90;;;;;;6249566;22;20492;-84
2021/11/23 11:46:44;;;;;;;3.43;1.53;;;7.10;99.90;;;;;;6247563;23;20249;-84
2021/11/23 11:49:37;;;;;;;3.77;1.60;;;7.10;99.90;;;;;;6247756;23;20188;-86
2021/11/23 11:52:09;;;;;;;2.13;1.20;;;7.00;99.90;;;;;;6248931;22;20565;-84
2021/11/23 11:54:45;;;;;;;2.87;1.03;;;7.00;99.90;;;;;;6249217;22;20638;-84
2021/11/23 11:57:29;;;;;;;1.87;1.10;;;7.00;99.90;;;;;;6247628;22;20528;-84
2021/11/23 12:00:31;;;;;;;2.50;1.33;;;7.00;99.90;;;;;;6249418;22;20211;-85
2021/11/23 12:03:41;;;;;;;1.63;1.03;;;7.00;99.90;;;;;;6249762;22;20246;-84
2021/11/23 12:06:13;;;;;;;3.90;1.30;;;6.90;99.90;;;;;;6244966;22;20202;-84
2021/11/23 12:08:47;;;;;;;2.23;0.90;;;6.90;99.90;;;;;;6248850;22;20186;-84
2021/11/23 12:11:34;;;;;;;3.03;0.60;;;6.90;99.90;;;;;;6250465;22;20183;-85
2021/11/23 12:14:13;;;;;;;1.83;0.70;;;6.80;99.90;;;;;;6249192;22;20180;-84
2021/11/23 12:16:53;;;;;;;2.37;0.97;;;6.80;99.90;;;;;;6248243;23;20576;-85
2021/11/23 12:19:43;;;;;;;1.90;0.77;;;6.80;99.90;;;;;;6249605;22;20170;-85
2021/11/23 12:22:23;;;;;;;1.13;0.80;;;6.80;99.90;;;;;;6249413;22;20172;-85
2021/11/23 12:24:55;;;;;;;2.37;0.67;;;6.90;99.90;;;;;;6248753;22;20170;-85
2021/11/23 12:27:35;;;;;;;2.60;0.97;;;6.80;99.90;;;;;;6247462;23;20225;-85
2021/11/23 12:30:07;;;;;;;3.23;0.90;;;6.80;99.90;;;;;;6249218;22;20656;-85
2021/11/23 12:32:42;;;;;;;2.37;0.80;;;6.80;99.90;;;;;;6249079;22;20172;-85
2021/11/23 12:35:15;;;;;;;1.50;0.70;;;6.80;99.90;;;;;;6248173;22;20163;-85
2021/11/23 12:37:49;;;;;;;1.50;0.80;;;6.90;99.90;;;;;;6248976;22;20175;-86
2021/11/23 12:40:25;;;;;;;3.80;1.33;;;6.90;99.90;;;;;;6249991;22;20201;-85
2021/11/23 12:43:03;;;;;;;2.57;0.90;;;6.90;99.90;;;;;;6249960;22;20163;-84
2021/11/23 12:45:45;;;;;;;2.63;1.10;;;6.90;99.90;;;;;;6249761;22;20168;-86
2021/11/23 12:48:32;;;;;;;2.03;0.67;;;6.90;99.90;;;;;;6271759;22;20315;-84
2021/11/23 12:51:17;;;;;;;3.90;0.90;;;6.90;99.90;;;;;;6271282;22;20189;-86
2021/11/23 12:53:53;;;;;;;5.90;1.20;;;6.90;99.90;;;;;;6270757;22;20162;-85
2021/11/23 12:56:24;;;;;;;3.30;1.17;;;6.90;99.90;;;;;;6267698;22;20175;-85
2021/11/23 12:58:58;;;;;;;2.20;0.80;;;7.00;99.90;;;;;;6261839;22;20168;-86
2021/11/23 13:01:31;;;;;;;3.03;1.03;;;6.90;99.90;;;;;;6249676;23;20189;-86
2021/11/23 13:04:03;;;;;;;3.20;1.10;;;6.90;99.90;;;;;;6249626;22;20327;-83
2021/11/23 13:06:35;;;;;;;4.50;0.90;;;6.90;99.90;;;;;;6248198;22;20252;-84
2021/11/23 13:09:08;;;;;;;4.20;1.23;;;7.00;99.90;;;;;;6249481;22;20175;-85
2021/11/23 13:11:40;;;;;;;2.63;1.17;;;7.00;99.90;;;;;;6248624;23;20243;-85
2021/11/23 13:14:19;;;;;;;3.67;1.30;;;6.90;99.90;;;;;;6248895;22;20179;-83
2021/11/23 13:16:53;;;;;;;3.60;0.90;;;6.90;99.90;;;;;;6247524;22;20451;-84
2021/11/23 13:19:25;;;;;;;4.03;1.40;;;6.90;99.90;;;;;;6248437;22;20167;-85
2021/11/23 13:22:03;;;;;;;1.73;1.30;;;6.90;99.90;;;;;;6248590;22;20240;-83
2021/11/23 13:24:34;;;;;;;5.63;0.97;;;6.90;99.90;;;;;;6249339;22;20171;-83
2021/11/23 13:27:06;;;;;;;6.20;1.00;;;6.90;99.90;;;;;;6246603;22;20196;-84
2021/11/23 13:29:45;;;;;;;2.80;1.10;;;6.90;99.90;;;;;;6248308;22;20192;-85
2021/11/23 13:32:17;;;;;;;4.67;0.90;;;6.90;99.90;;;;;;6249142;23;20172;-84
2021/11/23 13:34:48;;;;;;;1.13;0.60;;;6.90;99.90;;;;;;6248073;22;20257;-85
2021/11/23 13:37:20;;;;;;;0.87;0.30;;;6.80;99.90;;;;;;6247517;22;20167;-84
2021/11/23 13:39:52;;;;;;;0.37;0.30;;;6.70;99.90;;;;;;6248439;23;20175;-85
2021/11/23 13:42:24;;;;;;;0.60;0.30;;;6.60;99.90;;;;;;6248183;23;20191;-84
2021/11/23 13:45:12;;;;;;;1.80;0.30;;;6.40;99.90;;;;;;6248730;22;20168;-85